Time;durP1;ratioP1;P1;durP2;ratioP2;P2;SDS_P1;SDS_P2;PMS_P1;PMS_P2;Temp;Humidity;BMP_temperature;BMP_pressure;BME280_temperature;BME280_humidity;BME280_pressure;Samples;Min_cycle;Max_cycle;Signal;HPM_P1;HPM_P2
2022/04/29 00:00:16;;;;;;;11.27;2.60;;;5.30;65.50;;;;;;4101849;28;20042;-83
2022/04/29 00:02:17;;;;;;;6.32;2.35;;;5.20;65.50;;;;;;4119601;28;20030;-83
2022/04/29 00:04:18;;;;;;;6.28;1.85;;;5.20;65.70;;;;;;4113542;28;20479;-82
2022/04/29 00:06:19;;;;;;;14.38;2.35;;;5.20;65.80;;;;;;4102651;28;20031;-83
2022/04/29 00:08:20;;;;;;;9.52;2.33;;;5.20;65.90;;;;;;4102775;28;20043;-83
2022/04/29 00:10:21;;;;;;;10.43;2.35;;;5.20;65.90;;;;;;4102602;28;20178;-83
2022/04/29 00:12:22;;;;;;;6.25;2.03;;;5.10;65.80;;;;;;4103363;28;20054;-83
2022/04/29 00:14:25;;;;;;;11.13;2.50;;;5.10;66.00;;;;;;4099603;28;20035;-83
2022/04/29 00:16:26;;;;;;;;;;;5.20;66.00;;;;;;4104194;28;20106;-83
2022/04/29 00:18:27;;;;;;;12.60;1.90;;;5.20;66.50;;;;;;4098185;28;19910;-82
2022/04/29 00:20:28;;;;;;;12.38;2.38;;;5.10;65.70;;;;;;4099236;28;20095;-83
2022/04/29 00:22:28;;;;;;;11.60;2.10;;;5.00;65.80;;;;;;4096356;28;20027;-83
2022/04/29 00:24:29;;;;;;;5.55;2.08;;;5.00;66.00;;;;;;4096922;28;20038;-82
2022/04/29 00:26:29;;;;;;;10.98;2.53;;;5.00;66.10;;;;;;4089835;28;20105;-83
2022/04/29 00:28:30;;;;;;;7.80;2.20;;;4.90;66.30;;;;;;4098353;28;20109;-82
2022/04/29 00:30:31;;;;;;;5.32;2.22;;;4.90;67.30;;;;;;4089934;28;20087;-83
2022/04/29 00:32:31;;;;;;;7.35;2.20;;;4.90;66.60;;;;;;4096423;28;20035;-83
2022/04/29 00:34:32;;;;;;;5.57;2.03;;;4.90;66.70;;;;;;4096378;28;20459;-83
2022/04/29 00:36:32;;;;;;;7.45;2.45;;;4.90;66.90;;;;;;4097797;28;20095;-83
2022/04/29 00:38:33;;;;;;;10.15;2.30;;;4.90;67.00;;;;;;4094775;28;20113;-83
2022/04/29 00:40:34;;;;;;;9.00;2.08;;;4.90;67.10;;;;;;4099596;28;20049;-83
2022/04/29 00:42:34;;;;;;;11.80;2.55;;;4.90;67.10;;;;;;4099674;28;20059;-83
2022/04/29 00:44:38;;;;;;;8.50;2.33;;;4.90;67.10;;;;;;4100994;28;20102;-82
2022/04/29 00:46:42;;;;;;;4.22;1.67;;;4.80;67.00;;;;;;4097886;28;20023;-83
2022/04/29 00:48:42;;;;;;;6.53;2.10;;;4.90;66.90;;;;;;4092204;28;20033;-83
2022/04/29 00:50:44;;;;;;;5.85;2.30;;;4.80;66.80;;;;;;4116172;28;20026;-84
2022/04/29 00:52:48;;;;;;;11.35;2.72;;;4.80;66.90;;;;;;4094887;28;20559;-83
2022/04/29 00:54:57;;;;;;;11.68;2.70;;;4.90;67.00;;;;;;4106667;28;20518;-83
2022/04/29 00:57:00;;;;;;;6.65;2.17;;;4.80;66.90;;;;;;4102032;28;20031;-83
2022/04/29 00:59:03;;;;;;;5.30;1.95;;;4.80;67.60;;;;;;4096568;28;20110;-83
2022/04/29 01:01:04;;;;;;;6.60;1.90;;;4.80;66.90;;;;;;4109282;28;20034;-83
2022/04/29 01:03:05;;;;;;;5.78;2.00;;;4.70;66.70;;;;;;4111771;28;20031;-83
2022/04/29 01:05:09;;;;;;;8.68;2.20;;;4.70;66.60;;;;;;4097460;28;20360;-80
2022/04/29 01:07:10;;;;;;;14.75;2.33;;;4.70;66.50;;;;;;4096477;28;20043;-82
2022/04/29 01:09:11;;;;;;;7.07;2.30;;;4.70;66.40;;;;;;4069003;29;20368;-81
2022/04/29 01:11:11;;;;;;;4.80;1.98;;;4.70;66.40;;;;;;4093758;28;20031;-81
2022/04/29 01:13:12;;;;;;;9.98;2.20;;;4.70;66.40;;;;;;4095106;28;20034;-80
2022/04/29 01:15:15;;;;;;;7.20;2.30;;;4.60;66.40;;;;;;4090814;28;20043;-79
2022/04/29 01:17:16;;;;;;;3.90;1.63;;;4.60;66.50;;;;;;4094520;28;20038;-81
2022/04/29 01:19:16;;;;;;;5.47;2.20;;;4.60;66.50;;;;;;4092373;28;20662;-81
2022/04/29 01:21:18;;;;;;;8.27;2.00;;;4.60;66.50;;;;;;4091247;28;20031;-80
2022/04/29 01:23:18;;;;;;;12.90;2.50;;;4.50;66.50;;;;;;4090522;28;20034;-81
2022/04/29 01:25:19;;;;;;;7.82;1.80;;;4.50;66.50;;;;;;4074014;29;20040;-82
2022/04/29 01:27:20;;;;;;;6.20;1.70;;;4.50;66.40;;;;;;4093115;28;20039;-80
2022/04/29 01:29:22;;;;;;;6.40;1.67;;;4.50;66.40;;;;;;4101310;28;20058;-79
2022/04/29 01:31:23;;;;;;;7.47;2.10;;;4.50;66.40;;;;;;4092081;28;20102;-80
2022/04/29 01:33:28;;;;;;;10.85;1.83;;;4.40;66.40;;;;;;4083995;28;20086;-80
2022/04/29 01:35:28;;;;;;;5.05;1.85;;;4.50;66.50;;;;;;4091589;28;20058;-80
2022/04/29 01:37:30;;;;;;;8.35;2.25;;;4.40;66.40;;;;;;4092240;28;20411;-82
2022/04/29 01:39:31;;;;;;;11.18;2.13;;;4.40;66.40;;;;;;4094869;28;20035;-83
2022/04/29 01:41:41;;;;;;;8.77;2.30;;;4.40;66.40;;;;;;4086994;28;20042;-81
2022/04/29 01:43:41;;;;;;;4.47;1.90;;;4.40;66.40;;;;;;4089034;28;20031;-82
2022/04/29 01:45:45;;;;;;;9.48;2.03;;;4.40;66.50;;;;;;4091461;28;20035;-80
2022/04/29 01:47:55;;;;;;;7.13;2.20;;;4.30;66.60;;;;;;4085630;28;20103;-81
2022/04/29 01:49:55;;;;;;;7.88;2.10;;;4.30;66.70;;;;;;4088581;28;20058;-81
2022/04/29 01:52:02;;;;;;;4.35;2.05;;;4.30;67.10;;;;;;4074646;29;20036;-82
2022/04/29 01:54:04;;;;;;;9.68;2.03;;;4.30;67.10;;;;;;4103715;28;20030;-82
2022/04/29 01:56:05;;;;;;;5.90;1.98;;;4.30;67.00;;;;;;4079619;29;20797;-81
2022/04/29 01:58:06;;;;;;;6.22;1.85;;;4.30;67.10;;;;;;4114784;28;20051;-82
2022/04/29 02:00:07;;;;;;;11.20;2.28;;;4.30;67.20;;;;;;4104123;28;20056;-82
2022/04/29 02:02:11;;;;;;;11.68;2.10;;;4.30;67.20;;;;;;4096480;28;20544;-81
2022/04/29 02:04:11;;;;;;;11.23;2.20;;;4.30;67.50;;;;;;4095266;28;20067;-83
2022/04/29 02:06:12;;;;;;;10.20;1.95;;;4.30;67.50;;;;;;4100892;28;20109;-81
2022/04/29 02:08:13;;;;;;;8.63;2.00;;;4.30;67.80;;;;;;4099684;28;20046;-82
2022/04/29 02:10:14;;;;;;;7.43;2.00;;;4.20;67.90;;;;;;4101067;28;20039;-83
2022/04/29 02:12:15;;;;;;;5.68;1.75;;;4.30;68.10;;;;;;4098865;28;20046;-83
2022/04/29 02:14:17;;;;;;;6.07;2.50;;;4.30;68.30;;;;;;4098505;28;20039;-84
2022/04/29 02:16:18;;;;;;;14.07;1.97;;;4.30;68.40;;;;;;4094412;28;20699;-83
2022/04/29 02:18:18;;;;;;;12.95;2.10;;;4.30;68.50;;;;;;4096841;28;20038;-84
2022/04/29 02:20:21;;;;;;;10.77;2.00;;;4.30;68.60;;;;;;4097582;28;20059;-83
2022/04/29 02:22:22;;;;;;;9.43;2.47;;;4.30;68.50;;;;;;4101332;28;20027;-84
2022/04/29 02:24:23;;;;;;;9.05;1.92;;;4.30;68.60;;;;;;4101698;28;20027;-84
2022/04/29 02:26:23;;;;;;;9.70;2.20;;;4.30;68.60;;;;;;4095011;28;20039;-84
2022/04/29 02:28:24;;;;;;;9.35;1.95;;;4.30;68.70;;;;;;4098449;28;20472;-84
2022/04/29 02:30:25;;;;;;;7.28;2.55;;;4.30;68.70;;;;;;4104209;28;20078;-84
2022/04/29 02:32:25;;;;;;;8.05;2.00;;;4.30;68.70;;;;;;4099630;28;20038;-83
2022/04/29 02:34:26;;;;;;;5.88;1.92;;;4.30;68.70;;;;;;4095164;28;20432;-83
2022/04/29 02:36:28;;;;;;;7.20;1.95;;;4.30;68.90;;;;;;4098807;28;20042;-83
2022/04/29 02:38:28;;;;;;;5.60;1.73;;;4.30;68.80;;;;;;4097615;28;20115;-84
2022/04/29 02:40:29;;;;;;;14.45;2.50;;;4.30;68.80;;;;;;4118043;28;20523;-83
2022/04/29 02:42:30;;;;;;;7.97;2.03;;;4.30;68.90;;;;;;4090804;28;20036;-84
2022/04/29 02:44:30;;;;;;;6.25;1.88;;;4.40;69.00;;;;;;4103890;28;20069;-83
2022/04/29 02:46:31;;;;;;;3.90;1.55;;;4.30;69.00;;;;;;4104270;28;20440;-84
2022/04/29 02:48:32;;;;;;;5.15;2.00;;;4.30;69.00;;;;;;4088643;29;20118;-83
2022/04/29 02:50:32;;;;;;;6.25;1.90;;;4.30;69.10;;;;;;4101007;28;20471;-83
2022/04/29 02:52:33;;;;;;;6.45;2.28;;;4.40;69.10;;;;;;4101772;28;20474;-83
2022/04/29 02:54:34;;;;;;;2.92;1.65;;;4.30;69.20;;;;;;4115353;28;20026;-84
2022/04/29 02:56:34;;;;;;;8.40;1.70;;;4.30;69.20;;;;;;4100803;28;20557;-83
2022/04/29 02:58:35;;;;;;;6.70;2.05;;;4.30;69.30;;;;;;4100825;28;20063;-83
2022/04/29 03:00:36;;;;;;;13.32;1.77;;;4.30;69.30;;;;;;4092341;28;20063;-83
2022/04/29 03:02:37;;;;;;;9.15;1.85;;;4.40;69.40;;;;;;4113235;28;20042;-83
2022/04/29 03:04:38;;;;;;;7.00;2.17;;;4.40;69.40;;;;;;4091805;28;20039;-83
2022/04/29 03:06:39;;;;;;;10.43;1.90;;;4.40;69.40;;;;;;4093631;28;20106;-84
2022/04/29 03:08:40;;;;;;;7.90;1.65;;;4.40;69.40;;;;;;4094257;28;20086;-84
2022/04/29 03:10:41;;;;;;;6.25;1.90;;;4.40;69.30;;;;;;4095949;28;20038;-83
2022/04/29 03:12:41;;;;;;;8.90;2.15;;;4.40;69.20;;;;;;4097035;28;20082;-84
2022/04/29 03:14:42;;;;;;;9.60;1.95;;;4.40;69.30;;;;;;4109662;28;20026;-84
2022/04/29 03:16:43;;;;;;;7.63;1.95;;;4.40;70.00;;;;;;4093178;28;20042;-84
2022/04/29 03:18:44;;;;;;;6.97;1.80;;;4.40;69.30;;;;;;4095362;28;20027;-84
2022/04/29 03:20:46;;;;;;;11.00;2.22;;;4.30;69.20;;;;;;4097820;28;20074;-84
2022/04/29 03:22:46;;;;;;;8.48;1.92;;;4.40;69.20;;;;;;4097025;28;20032;-83
2022/04/29 03:24:47;;;;;;;4.90;1.80;;;4.40;69.20;;;;;;4100296;28;20032;-83
2022/04/29 03:26:48;;;;;;;7.40;1.80;;;4.40;69.10;;;;;;4095426;28;20283;-83
2022/04/29 03:28:48;;;;;;;6.18;1.90;;;4.40;69.10;;;;;;4095650;28;20059;-83
2022/04/29 03:30:49;;;;;;;6.47;1.75;;;4.40;69.20;;;;;;4095364;28;20035;-83
2022/04/29 03:32:55;;;;;;;6.72;2.00;;;4.30;69.30;;;;;;4092977;28;20023;-84
2022/04/29 03:34:56;;;;;;;6.13;1.80;;;4.30;69.30;;;;;;4096485;28;20042;-84
2022/04/29 03:36:56;;;;;;;6.15;1.67;;;4.30;69.20;;;;;;4090182;28;20342;-84
2022/04/29 03:38:57;;;;;;;9.07;1.80;;;4.30;69.20;;;;;;4090325;28;20098;-83
2022/04/29 03:40:58;;;;;;;8.07;2.00;;;4.30;69.20;;;;;;4095359;28;20056;-83
2022/04/29 03:42:59;;;;;;;8.10;1.90;;;4.30;69.20;;;;;;4093416;28;20421;-83
2022/04/29 03:45:00;;;;;;;6.13;1.92;;;4.30;69.10;;;;;;4108982;28;20025;-83
2022/04/29 03:47:00;;;;;;;4.55;1.90;;;4.30;69.00;;;;;;4095236;28;20698;-84
2022/04/29 03:51:20;;;;;;;5.90;1.80;;;4.30;68.90;;;;;;4112042;28;20030;-84
2022/04/29 03:53:24;;;;;;;4.78;1.70;;;4.30;68.80;;;;;;4096243;28;20063;-84
2022/04/29 03:55:27;;;;;;;8.00;2.20;;;4.20;68.80;;;;;;4099236;28;20151;-84
2022/04/29 03:57:28;;;;;;;7.03;1.60;;;4.20;68.70;;;;;;4109003;28;20110;-84
2022/04/29 03:59:28;;;;;;;7.18;1.80;;;4.20;68.70;;;;;;4093398;28;20062;-84
2022/04/29 04:01:29;;;;;;;12.98;2.47;;;4.20;68.60;;;;;;4093446;28;20468;-84
2022/04/29 04:03:30;;;;;;;7.65;1.90;;;4.20;68.50;;;;;;4093779;28;20074;-84
2022/04/29 04:05:32;;;;;;;4.57;1.70;;;4.10;68.30;;;;;;4116943;28;20715;-84
2022/04/29 04:07:32;;;;;;;8.15;1.52;;;4.10;68.40;;;;;;4094917;28;20041;-84
2022/04/29 04:09:33;;;;;;;6.70;1.95;;;4.10;68.30;;;;;;4094647;28;20071;-84
2022/04/29 04:11:34;;;;;;;7.85;2.20;;;4.10;68.30;;;;;;4094473;28;20035;-84
2022/04/29 04:13:34;;;;;;;4.32;1.83;;;4.10;68.30;;;;;;4093293;28;20035;-84
2022/04/29 04:15:35;;;;;;;8.05;1.75;;;4.10;68.30;;;;;;4092149;28;20042;-84
2022/04/29 04:17:37;;;;;;;4.97;2.03;;;4.00;68.30;;;;;;4095298;28;20082;-85
2022/04/29 04:19:37;;;;;;;6.75;1.83;;;4.00;68.30;;;;;;4095539;28;20587;-84
2022/04/29 04:21:39;;;;;;;6.20;1.80;;;4.00;68.40;;;;;;4094841;28;20081;-84
2022/04/29 04:23:40;;;;;;;5.25;2.08;;;4.00;68.50;;;;;;4089498;28;20035;-84
2022/04/29 04:25:41;;;;;;;6.28;2.55;;;4.00;68.50;;;;;;4098072;28;20094;-83
2022/04/29 04:27:42;;;;;;;5.45;1.98;;;4.00;68.50;;;;;;4104455;28;20369;-84
2022/04/29 04:29:42;;;;;;;9.15;1.80;;;3.90;68.50;;;;;;4094507;28;20042;-84
2022/04/29 04:31:43;;;;;;;10.00;2.28;;;3.90;68.60;;;;;;4099803;28;20110;-84
2022/04/29 04:33:44;;;;;;;6.97;2.13;;;3.90;68.70;;;;;;4087384;28;20553;-84
2022/04/29 04:35:44;;;;;;;7.03;2.22;;;3.90;68.80;;;;;;4098371;28;20030;-83
2022/04/29 04:37:45;;;;;;;13.25;2.40;;;3.90;68.90;;;;;;4091055;28;20031;-84
2022/04/29 04:39:47;;;;;;;9.65;1.95;;;3.90;68.90;;;;;;4095656;28;20552;-83
2022/04/29 04:41:48;;;;;;;3.65;2.00;;;3.90;68.90;;;;;;4101330;28;20039;-84
2022/04/29 04:43:49;;;;;;;4.85;2.10;;;3.90;69.10;;;;;;4102253;28;20046;-84
2022/04/29 04:45:51;;;;;;;5.75;1.98;;;3.90;69.20;;;;;;4080896;28;20092;-84
2022/04/29 04:47:51;;;;;;;3.63;1.90;;;3.90;69.20;;;;;;4090420;28;20024;-84
2022/04/29 04:49:52;;;;;;;9.80;2.47;;;3.90;69.30;;;;;;4101093;28;20046;-84
2022/04/29 04:51:53;;;;;;;4.13;2.15;;;3.90;69.30;;;;;;4092561;28;20024;-84
2022/04/29 04:53:53;;;;;;;6.85;2.20;;;4.00;69.40;;;;;;4096902;28;20022;-84
2022/04/29 04:55:54;;;;;;;5.30;2.08;;;4.00;69.60;;;;;;4087336;28;20031;-84
2022/04/29 04:57:55;;;;;;;4.82;2.35;;;4.00;69.70;;;;;;4087136;28;20024;-84
2022/04/29 04:59:56;;;;;;;8.13;2.22;;;4.00;69.80;;;;;;4090107;28;20027;-84
2022/04/29 05:01:57;;;;;;;9.07;2.25;;;4.00;69.90;;;;;;4087492;28;20035;-84
2022/04/29 05:03:57;;;;;;;6.90;2.63;;;4.00;70.00;;;;;;4087088;28;20483;-84
2022/04/29 05:05:58;;;;;;;7.78;2.50;;;4.10;70.20;;;;;;4088386;28;20034;-84
2022/04/29 05:07:59;;;;;;;9.40;2.22;;;4.10;70.50;;;;;;4086897;28;20023;-88
2022/04/29 05:09:59;;;;;;;14.18;5.72;;;4.10;70.70;;;;;;4090812;28;20026;-86
2022/04/29 05:12:00;;;;;;;13.18;2.97;;;4.20;71.20;;;;;;4105512;28;20960;-86
2022/04/29 05:14:00;;;;;;;9.27;2.88;;;4.30;71.50;;;;;;4088832;28;20091;-89
2022/04/29 05:16:01;;;;;;;8.65;2.47;;;4.30;71.60;;;;;;4093283;28;20035;-87
2022/04/29 05:18:02;;;;;;;13.40;2.67;;;4.40;71.80;;;;;;4086778;29;20035;-87
2022/04/29 05:20:03;;;;;;;9.02;2.08;;;4.40;72.00;;;;;;4081221;29;20071;-86
2022/04/29 05:22:04;;;;;;;6.30;2.40;;;4.50;72.20;;;;;;4086092;29;20039;-87
2022/04/29 05:24:05;;;;;;;11.23;2.38;;;4.60;72.40;;;;;;4090839;28;20028;-86
2022/04/29 05:26:06;;;;;;;7.88;2.53;;;4.70;72.50;;;;;;4106356;28;20055;-87
2022/04/29 05:28:07;;;;;;;10.15;2.33;;;4.80;73.10;;;;;;4091608;28;20616;-87
2022/04/29 05:30:09;;;;;;;7.53;2.50;;;4.80;73.60;;;;;;4089718;28;20027;-87
2022/04/29 05:32:10;;;;;;;10.05;2.80;;;5.00;73.80;;;;;;4080300;29;20195;-87
2022/04/29 05:34:10;;;;;;;9.20;2.75;;;5.10;74.30;;;;;;4083809;29;20035;-85
2022/04/29 05:36:12;;;;;;;12.40;2.60;;;5.20;74.60;;;;;;4091531;28;20122;-86
2022/04/29 05:38:12;;;;;;;8.73;2.42;;;5.30;74.30;;;;;;4089383;28;20031;-85
2022/04/29 05:42:32;;;;;;;10.40;2.20;;;5.50;74.00;;;;;;4089472;29;20035;-86
2022/04/29 05:44:34;;;;;;;10.25;2.30;;;5.60;73.80;;;;;;4091129;29;20242;-85
2022/04/29 05:46:35;;;;;;;8.25;2.28;;;5.70;74.00;;;;;;4085456;29;20365;-86
2022/04/29 05:48:35;;;;;;;8.25;2.72;;;5.90;73.90;;;;;;4096259;28;20038;-85
2022/04/29 05:50:36;;;;;;;8.30;2.00;;;5.90;73.40;;;;;;4088617;28;20059;-85
2022/04/29 05:52:37;;;;;;;6.07;1.85;;;6.00;73.30;;;;;;4089368;29;20034;-85
2022/04/29 05:54:37;;;;;;;13.45;2.05;;;6.10;73.10;;;;;;4109643;28;20057;-85
2022/04/29 05:56:38;;;;;;;7.00;1.98;;;6.20;72.80;;;;;;4085367;29;20059;-84
2022/04/29 05:58:39;;;;;;;15.18;2.40;;;6.20;72.80;;;;;;4093483;28;20031;-84
2022/04/29 06:00:40;;;;;;;10.65;1.92;;;6.30;72.20;;;;;;4095096;28;20059;-86
2022/04/29 06:02:41;;;;;;;8.57;1.75;;;6.30;71.90;;;;;;4095581;28;20114;-85
2022/04/29 06:04:42;;;;;;;7.57;1.70;;;6.40;71.60;;;;;;4112040;28;20011;-85
2022/04/29 06:06:42;;;;;;;6.75;1.77;;;6.40;71.40;;;;;;4098689;28;20554;-85
2022/04/29 06:08:43;;;;;;;11.50;1.75;;;6.50;70.70;;;;;;4071909;29;20118;-85
2022/04/29 06:10:44;;;;;;;6.70;1.35;;;6.60;70.50;;;;;;4106849;28;20150;-86
2022/04/29 06:12:46;;;;;;;10.95;1.35;;;6.70;70.60;;;;;;4088063;29;20488;-86
2022/04/29 06:14:46;;;;;;;4.45;1.40;;;6.70;70.30;;;;;;4108516;28;20061;-85
2022/04/29 06:16:47;;;;;;;6.60;2.10;;;6.70;70.10;;;;;;4086439;29;20051;-85
2022/04/29 06:18:48;;;;;;;10.15;1.98;;;6.80;69.90;;;;;;4095044;28;20038;-84
2022/04/29 06:20:48;;;;;;;7.47;1.45;;;7.00;69.90;;;;;;4092537;28;20155;-85
2022/04/29 06:22:49;;;;;;;12.35;2.05;;;7.00;69.60;;;;;;4093743;28;20050;-87
2022/04/29 06:24:50;;;;;;;10.32;1.48;;;7.10;69.10;;;;;;4097600;28;20031;-85
2022/04/29 06:26:51;;;;;;;6.97;1.52;;;7.20;68.50;;;;;;4087559;28;20036;-86
2022/04/29 06:28:52;;;;;;;8.18;1.20;;;7.20;68.20;;;;;;4109247;28;20506;-86
2022/04/29 06:30:52;;;;;;;6.30;1.77;;;7.20;68.00;;;;;;4103980;28;20102;-85
2022/04/29 06:32:54;;;;;;;7.53;1.75;;;7.30;67.60;;;;;;4083874;29;20055;-85
2022/04/29 06:34:55;;;;;;;10.75;1.50;;;7.40;67.40;;;;;;4088170;29;20095;-87
2022/04/29 06:36:55;;;;;;;7.03;1.67;;;7.50;66.50;;;;;;4107168;28;20039;-87
2022/04/29 06:38:56;;;;;;;10.80;1.67;;;7.60;66.10;;;;;;4097179;28;20032;-86
2022/04/29 06:40:58;;;;;;;6.72;1.52;;;7.70;66.00;;;;;;4099931;28;20040;-87
2022/04/29 06:42:58;;;;;;;6.57;1.33;;;7.70;65.40;;;;;;4095831;28;20062;-84
2022/04/29 06:44:59;;;;;;;6.40;1.48;;;7.70;64.60;;;;;;4094459;28;20026;-86
2022/04/29 06:47:00;;;;;;;9.65;1.38;;;7.90;64.70;;;;;;4085502;29;20051;-88
2022/04/29 06:49:00;;;;;;;12.27;1.90;;;7.90;64.40;;;;;;4090158;29;20103;-87
2022/04/29 06:51:01;;;;;;;4.63;1.55;;;7.90;64.20;;;;;;4093110;29;20114;-87
2022/04/29 06:53:02;;;;;;;4.32;1.27;;;8.10;63.80;;;;;;4089479;28;20101;-86
2022/04/29 06:55:03;;;;;;;5.45;1.30;;;8.00;63.10;;;;;;4096079;28;20035;-86
2022/04/29 06:57:04;;;;;;;7.72;1.60;;;8.10;62.50;;;;;;4090670;29;21005;-86
2022/04/29 06:59:05;;;;;;;12.43;1.70;;;8.10;62.00;;;;;;4094472;29;20526;-85
2022/04/29 07:01:06;;;;;;;8.13;1.67;;;8.20;61.80;;;;;;4092753;29;20031;-87
2022/04/29 07:03:07;;;;;;;7.25;1.40;;;8.10;61.80;;;;;;4092373;28;20058;-85
2022/04/29 07:05:08;;;;;;;7.63;1.50;;;8.20;61.70;;;;;;4091592;28;20483;-86
2022/04/29 07:07:12;;;;;;;8.02;1.30;;;8.20;61.70;;;;;;4085764;29;20038;-86
2022/04/29 07:09:13;;;;;;;8.40;1.42;;;8.30;61.20;;;;;;4084945;29;20028;-89
2022/04/29 07:11:14;;;;;;;8.27;1.42;;;8.30;61.40;;;;;;4085568;29;20142;-87
2022/04/29 07:13:14;;;;;;;9.20;1.42;;;8.40;61.10;;;;;;4095332;28;20027;-89
2022/04/29 07:15:16;;;;;;;4.68;1.30;;;8.40;60.90;;;;;;4088808;28;20035;-90
2022/04/29 07:17:18;;;;;;;5.78;1.50;;;8.40;60.50;;;;;;4089155;29;20097;-89
2022/04/29 07:19:18;;;;;;;8.20;1.77;;;8.50;59.90;;;;;;4085338;29;20050;-87
2022/04/29 07:21:19;;;;;;;8.93;1.23;;;8.50;59.40;;;;;;4087885;29;20106;-90
2022/04/29 07:23:20;;;;;;;7.80;1.23;;;8.50;59.40;;;;;;4090868;28;20023;-87
2022/04/29 07:25:20;;;;;;;5.35;1.30;;;8.60;59.40;;;;;;4089470;28;20031;-89
2022/04/29 07:27:21;;;;;;;5.90;1.38;;;8.60;59.00;;;;;;4088852;28;20027;-87
2022/04/29 07:29:22;;;;;;;9.35;1.48;;;8.60;59.20;;;;;;4093177;28;20031;-88
2022/04/29 07:31:23;;;;;;;4.22;1.20;;;8.60;58.80;;;;;;4084104;29;20028;-87
2022/04/29 07:33:23;;;;;;;4.13;0.90;;;8.70;58.60;;;;;;4105744;28;20038;-87
2022/04/29 07:42:24;;;;;;;4.85;1.40;;;8.70;58.10;;;;;;4090146;28;20400;-86
2022/04/29 07:44:24;;;;;;;7.90;1.52;;;8.80;57.80;;;;;;4091552;28;20226;-86
2022/04/29 07:46:25;;;;;;;6.00;1.73;;;8.80;57.70;;;;;;4090157;28;20042;-88
2022/04/29 07:48:25;;;;;;;2.10;1.27;;;8.80;57.80;;;;;;4089586;29;20102;-86
2022/04/29 07:50:29;;;;;;;7.68;1.90;;;8.80;57.80;;;;;;4085815;29;20110;-87
2022/04/29 07:52:30;;;;;;;10.15;1.95;;;8.80;58.00;;;;;;4090139;28;20572;-87
2022/04/29 07:54:30;;;;;;;7.40;1.50;;;8.90;58.00;;;;;;4090145;28;20046;-87
2022/04/29 07:56:31;;;;;;;7.60;1.85;;;8.80;58.10;;;;;;4091516;28;20066;-87
2022/04/29 07:58:32;;;;;;;5.28;1.50;;;9.00;58.20;;;;;;4090624;28;20027;-87
2022/04/29 08:00:33;;;;;;;8.85;1.42;;;8.90;57.70;;;;;;4092746;28;20031;-87
2022/04/29 08:02:33;;;;;;;4.90;1.58;;;9.10;57.80;;;;;;4088654;28;20027;-87
2022/04/29 08:04:34;;;;;;;5.28;1.38;;;9.10;57.90;;;;;;4090016;28;20114;-89
2022/04/29 08:06:35;;;;;;;5.30;1.35;;;9.10;57.90;;;;;;4094185;28;20123;-87
2022/04/29 08:08:37;;;;;;;5.20;1.60;;;9.10;57.70;;;;;;4094432;28;20118;-87
2022/04/29 08:10:38;;;;;;;5.97;2.40;;;9.20;57.60;;;;;;4113505;28;20039;-87
2022/04/29 08:12:39;;;;;;;6.65;1.95;;;9.20;57.60;;;;;;4093984;28;21202;-88
2022/04/29 08:14:40;;;;;;;5.13;1.60;;;9.20;57.70;;;;;;4093734;29;20039;-88
2022/04/29 08:16:41;;;;;;;5.72;1.77;;;9.30;57.60;;;;;;4094243;29;20027;-89
2022/04/29 08:18:42;;;;;;;11.32;1.48;;;9.30;57.30;;;;;;4091699;28;20515;-88
2022/04/29 08:20:43;;;;;;;7.35;1.88;;;9.40;57.30;;;;;;4113677;28;20721;-87
2022/04/29 08:22:44;;;;;;;9.05;1.65;;;9.50;57.10;;;;;;4091780;28;20114;-87
2022/04/29 08:24:45;;;;;;;4.93;1.63;;;9.50;57.10;;;;;;4093416;28;20814;-87
2022/04/29 08:26:46;;;;;;;5.63;1.48;;;9.50;56.70;;;;;;4096726;28;20035;-88
2022/04/29 08:28:47;;;;;;;5.32;1.30;;;9.50;56.30;;;;;;4105610;28;20041;-90
2022/04/29 08:30:47;;;;;;;9.98;1.75;;;9.60;56.30;;;;;;4098764;28;20495;-89
2022/04/29 08:32:50;;;;;;;6.15;1.70;;;9.60;56.30;;;;;;4109750;28;20458;-87
2022/04/29 08:34:51;;;;;;;6.60;1.40;;;9.70;56.10;;;;;;4093577;28;20031;-87
2022/04/29 08:36:51;;;;;;;3.15;1.13;;;9.70;55.80;;;;;;4092797;28;20031;-88
2022/04/29 08:38:52;;;;;;;4.55;1.77;;;9.70;55.20;;;;;;4093364;29;20057;-88
2022/04/29 08:40:57;;;;;;;3.83;1.35;;;9.80;54.40;;;;;;4102586;28;20034;-87
2022/04/29 08:42:58;;;;;;;2.58;1.20;;;9.90;54.50;;;;;;4095473;28;20130;-87
2022/04/29 08:44:59;;;;;;;6.55;1.20;;;9.80;54.40;;;;;;4091274;28;20118;-87
2022/04/29 08:47:04;;;;;;;4.00;0.80;;;9.90;53.70;;;;;;4089055;29;20031;-87
2022/04/29 08:49:06;;;;;;;8.98;1.25;;;9.90;54.00;;;;;;4094081;29;20110;-87
2022/04/29 08:51:06;;;;;;;3.83;1.17;;;9.90;53.90;;;;;;4099012;28;20023;-91
2022/04/29 08:53:07;;;;;;;2.63;1.00;;;9.90;54.00;;;;;;4098528;28;20090;-88
2022/04/29 08:59:49;;;;;;;7.65;1.63;;;10.10;53.80;;;;;;4093750;28;20027;-88
2022/04/29 09:01:52;;;;;;;5.55;1.33;;;10.20;53.70;;;;;;4111139;28;20102;-87
2022/04/29 09:03:52;;;;;;;4.10;0.90;;;10.20;53.50;;;;;;4098060;28;20030;-88
2022/04/29 09:05:53;;;;;;;3.92;1.00;;;10.30;53.70;;;;;;4107502;28;20023;-87
2022/04/29 09:08:01;;;;;;;5.25;1.00;;;10.30;53.50;;;;;;4093712;28;20134;-88
2022/04/29 09:10:05;;;;;;;5.90;0.90;;;10.30;53.20;;;;;;4093659;28;20054;-90
2022/04/29 09:12:16;;;;;;;4.53;0.88;;;10.40;53.40;;;;;;4088010;29;20040;-88
2022/04/29 09:14:24;;;;;;;8.60;1.02;;;10.40;53.00;;;;;;4091601;29;20110;-87
2022/04/29 09:16:25;;;;;;;3.83;0.90;;;10.50;53.30;;;;;;4092827;28;20094;-88
2022/04/29 09:18:39;;;;;;;7.20;0.82;;;10.50;52.40;;;;;;4094234;28;20035;-86
2022/04/29 09:20:41;;;;;;;5.25;1.10;;;10.50;52.60;;;;;;4094536;28;20440;-85
2022/04/29 09:22:50;;;;;;;5.22;1.35;;;10.60;53.00;;;;;;4098589;28;20027;-86
2022/04/29 09:25:03;;;;;;;11.07;1.55;;;10.60;53.30;;;;;;4095479;28;20035;-88
2022/04/29 09:27:05;;;;;;;4.50;1.08;;;10.60;53.20;;;;;;4075513;29;20452;-87
2022/04/29 09:29:10;;;;;;;11.15;1.35;;;10.60;53.30;;;;;;4093524;28;20031;-88
2022/04/29 09:31:11;;;;;;;5.72;1.35;;;10.70;53.40;;;;;;4093773;28;20715;-88
2022/04/29 09:33:23;;;;;;;3.75;0.80;;;10.70;53.30;;;;;;4095055;28;20035;-89
2022/04/29 09:35:41;;;;;;;5.70;0.90;;;10.70;53.40;;;;;;4094933;29;20515;-89
2022/04/29 09:39:26;;;;;;;5.95;1.27;;;10.80;53.50;;;;;;4105889;28;20491;-88
2022/04/29 09:40:05;;;;;;;5.45;0.80;;;10.90;53.60;;;;;;4093566;28;20031;-88
2022/04/29 09:42:06;;;;;;;7.47;1.25;;;10.90;53.00;;;;;;4092065;28;20181;-90
2022/04/29 09:44:24;;;;;;;6.18;1.13;;;11.00;52.40;;;;;;4092142;28;20091;-88
2022/04/29 09:46:25;;;;;;;6.97;1.35;;;11.00;52.70;;;;;;4091654;29;20913;-88
2022/04/29 09:48:26;;;;;;;3.33;1.00;;;11.10;52.60;;;;;;4088632;28;20034;-88
2022/04/29 09:50:49;;;;;;;5.75;0.90;;;11.20;52.30;;;;;;4093945;28;20028;-89
2022/04/29 09:52:51;;;;;;;4.95;1.33;;;11.30;51.90;;;;;;4102336;28;20073;-87
2022/04/29 09:54:52;;;;;;;3.45;1.23;;;11.30;51.80;;;;;;4094677;28;20042;-87
2022/04/29 09:57:18;;;;;;;12.00;1.02;;;11.40;51.60;;;;;;4093507;28;20040;-89
2022/04/29 09:59:18;;;;;;;7.28;1.08;;;11.50;50.90;;;;;;4092042;28;20031;-88
2022/04/29 10:01:20;;;;;;;4.70;1.02;;;11.50;50.30;;;;;;4094246;29;20054;-89
2022/04/29 10:03:21;;;;;;;9.68;1.10;;;11.60;50.20;;;;;;4089100;28;20042;-89
2022/04/29 10:05:22;;;;;;;4.53;1.02;;;11.60;50.20;;;;;;4094074;29;20508;-86
2022/04/29 10:07:24;;;;;;;3.28;0.93;;;11.60;50.40;;;;;;4105201;28;20031;-88
2022/04/29 10:09:30;;;;;;;3.08;1.00;;;11.70;49.90;;;;;;4095228;28;20610;-86
2022/04/29 10:11:33;;;;;;;6.45;1.00;;;11.70;50.20;;;;;;4092383;29;20504;-87
2022/04/29 10:13:35;;;;;;;3.70;0.90;;;11.70;50.40;;;;;;4089716;28;20042;-87
2022/04/29 10:15:38;;;;;;;7.50;0.90;;;11.80;50.40;;;;;;4114557;28;20871;-87
2022/04/29 10:22:44;;;;;;;;;;;11.90;50.60;;;;;;4111525;28;20027;-86
2022/04/29 10:24:46;;;;;;;7.00;1.40;;;12.00;50.40;;;;;;4093576;28;19917;-86
2022/04/29 10:26:47;;;;;;;3.33;0.85;;;12.00;49.90;;;;;;4116719;28;20546;-87
2022/04/29 10:28:49;;;;;;;11.05;0.98;;;12.10;49.90;;;;;;4097755;28;20035;-85
2022/04/29 10:31:01;;;;;;;6.63;1.17;;;12.10;49.80;;;;;;4095907;29;20035;-86
2022/04/29 10:33:04;;;;;;;3.50;0.90;;;12.20;49.50;;;;;;4113090;28;20495;-86
2022/04/29 10:35:25;;;;;;;;;;;12.30;49.80;;;;;;4097997;29;20559;-87
2022/04/29 10:37:32;;;;;;;2.10;1.13;;;12.30;49.30;;;;;;4092375;29;19969;-88
2022/04/29 10:39:33;;;;;;;5.93;1.08;;;12.30;48.90;;;;;;4071470;29;20189;-88
2022/04/29 10:41:34;;;;;;;5.38;0.90;;;12.40;48.70;;;;;;4099127;28;20038;-86
2022/04/29 10:43:38;;;;;;;7.75;0.90;;;12.30;48.20;;;;;;4100697;28;20551;-86
2022/04/29 10:46:04;;;;;;;3.75;1.02;;;12.30;48.60;;;;;;4110185;28;20019;-86
2022/04/29 10:48:30;;;;;;;6.13;1.50;;;12.30;48.80;;;;;;4095415;29;20387;-86
2022/04/29 10:50:35;;;;;;;6.10;1.30;;;12.30;48.00;;;;;;4109648;28;20034;-86
2022/04/29 10:52:36;;;;;;;3.25;0.90;;;12.30;48.50;;;;;;4096168;29;20050;-88
2022/04/29 10:54:40;;;;;;;5.03;1.40;;;12.30;48.10;;;;;;4096714;29;20111;-87
2022/04/29 10:56:41;;;;;;;3.80;1.20;;;12.30;48.00;;;;;;4095566;29;20034;-88
2022/04/29 10:58:46;;;;;;;4.40;0.90;;;12.30;48.10;;;;;;4100605;28;20204;-85
2022/04/29 11:01:14;;;;;;;4.03;1.02;;;12.30;48.10;;;;;;4095253;28;20038;-86
2022/04/29 11:03:41;;;;;;;3.78;0.98;;;12.30;47.90;;;;;;4099702;28;20058;-86